Terminal Aerodrome Forecast
Issued by NWS

Home | Current Version | Previous Version | Text Only | Print | Product List | Glossary On
Versions: 1 2 3 4 5 6 7 8 9 10 11 12 13 14 15 16 17 18 19 20 21
000
FTUS43 KIND 192300
TAFBMG
TAF
KBMG 192323Z 2000/2024 20014G20KT 5SM -SHRA BR SCT006 OVC025
      TEMPO 2000/2002 BKN006
     FM200300 22014G20KT P6SM OVC006
     FM200900 22014G20KT 5SM -SHRA BR OVC008
     FM202100 27015G21KT P6SM BKN035
      AMD LTD TO CLD VIS AND WIND 2001/2013=

USA.gov is the U.S. government's official web portal to all federal, state and local government web resources and services.